Time;durP1;ratioP1;P1;durP2;ratioP2;P2;SDS_P1;SDS_P2;PMS_P1;PMS_P2;Temp;Humidity;BMP_temperature;BMP_pressure;BME280_temperature;BME280_humidity;BME280_pressure;Samples;Min_cycle;Max_cycle;Signal;HPM_P1;HPM_P2
2022/06/04 00:01:01;;;;;;;18.13;14.90;;;;;;;21.46;87.51;95322.00;5072169;28;20457;-80
2022/06/04 00:03:28;;;;;;;15.97;14.37;;;;;;;21.43;87.61;95320.53;5072077;28;20447;-80
2022/06/04 00:05:57;;;;;;;20.77;13.23;;;;;;;21.43;87.80;95317.84;5020519;28;20445;-79
2022/06/04 00:08:27;;;;;;;14.13;12.70;;;;;;;21.46;88.04;95304.13;5071857;28;20489;-80
2022/06/04 00:16:32;;;;;;;14.00;12.57;;;;;;;21.57;86.96;95300.97;4972546;28;20437;-80
2022/06/04 00:19:00;;;;;;;13.27;11.70;;;;;;;21.59;86.69;95301.59;4974256;28;20480;-80
2022/06/04 00:21:27;;;;;;;13.20;10.50;;;;;;;21.55;86.18;95304.84;4974292;28;20971;-79
2022/06/04 00:23:55;;;;;;;11.07;10.17;;;;;;;21.52;85.50;95303.38;4974418;28;20446;-80
2022/06/04 00:26:23;;;;;;;11.37;10.40;;;;;;;21.48;84.91;95302.09;4974502;28;20791;-80
2022/06/04 00:28:50;;;;;;;11.20;9.93;;;;;;;21.46;84.83;95306.78;4974285;28;20493;-80
2022/06/04 00:31:20;;;;;;;12.20;8.77;;;;;;;21.33;84.93;95298.59;4974361;28;20442;-80
2022/06/04 00:33:47;;;;;;;10.73;8.37;;;;;;;21.28;85.26;95303.69;4974405;28;20454;-80
2022/06/04 00:36:14;;;;;;;10.50;9.10;;;;;;;21.25;85.02;95306.72;4974188;28;20461;-80
2022/06/04 00:38:41;;;;;;;11.03;9.53;;;;;;;21.22;85.26;95297.22;4974179;28;20449;-80
2022/06/04 00:41:20;;;;;;;11.20;9.27;;;;;;;21.23;84.74;95292.72;4974194;28;20452;-80
2022/06/04 00:44:02;;;;;;;11.80;10.20;;;;;;;21.17;85.29;95285.44;4973997;28;20441;-80
2022/06/04 00:47:04;;;;;;;12.70;9.13;;;;;;;21.21;84.98;95290.22;4974136;28;20951;-80
2022/06/04 00:49:31;;;;;;;11.80;9.50;;;;;;;21.16;85.15;95286.47;4973992;28;20484;-80
2022/06/04 00:51:58;;;;;;;14.73;11.10;;;;;;;21.14;85.23;95277.81;4995122;28;20925;-80
2022/06/04 00:54:25;;;;;;;12.53;11.20;;;;;;;21.12;85.43;95275.34;5034898;28;20781;-80
2022/06/04 00:57:03;;;;;;;10.30;9.27;;;;;;;21.12;85.54;95269.16;5034874;28;20450;-80
2022/06/04 00:59:40;;;;;;;11.23;10.03;;;;;;;21.15;85.10;95274.13;5035030;28;20451;-80
2022/06/04 01:02:18;;;;;;;11.93;9.50;;;;;;;21.14;84.96;95269.81;5000061;28;20435;-80
2022/06/04 01:04:57;;;;;;;12.23;11.03;;;;;;;21.10;84.93;95271.16;5035062;28;20478;-79
2022/06/04 01:07:39;;;;;;;11.40;10.30;;;;;;;21.07;85.11;95277.69;5034701;28;20454;-80
2022/06/04 01:10:21;;;;;;;15.73;10.10;;;;;;;21.06;85.31;95269.88;5035036;28;20455;-79
2022/06/04 01:13:00;;;;;;;14.47;9.50;;;;;;;21.08;84.89;95271.34;5034580;28;20791;-80
2022/06/04 01:15:41;;;;;;;12.07;10.97;;;;;;;21.09;84.94;95258.84;5034753;28;20454;-80
2022/06/04 01:18:19;;;;;;;11.80;9.60;;;;;;;21.06;85.10;95265.38;5034441;28;20462;-80
2022/06/04 01:20:53;;;;;;;10.70;9.50;;;;;;;21.06;85.34;95259.22;5072587;28;20480;-80
2022/06/04 01:24:05;;;;;;;14.07;10.60;;;;;;;21.06;85.56;95261.88;5074110;28;20951;-80
2022/06/04 01:27:05;;;;;;;10.90;9.80;;;;;;;21.07;85.66;95258.19;5073838;28;20523;-80
2022/06/04 01:29:39;;;;;;;10.53;9.03;;;;;;;21.06;85.69;95261.88;5073946;28;20484;-79
2022/06/04 01:32:11;;;;;;;10.70;9.70;;;;;;;21.01;85.56;95252.59;5074348;28;20440;-80
2022/06/04 01:34:53;;;;;;;10.67;9.60;;;;;;;21.00;85.78;95258.94;5074340;28;20993;-80
2022/06/04 01:37:26;;;;;;;9.87;8.97;;;;;;;20.90;85.51;95255.75;5074270;28;20442;-80
2022/06/04 01:42:45;;;;;;;11.60;9.20;;;;;;;20.89;85.51;95253.25;5074141;28;20433;-80
2022/06/04 01:45:16;;;;;;;11.93;10.73;;;;;;;20.89;85.12;95253.25;5074092;28;20534;-80
2022/06/04 01:47:47;;;;;;;11.10;10.10;;;;;;;20.87;85.12;95256.09;5073660;28;20453;-80
2022/06/04 01:50:18;;;;;;;16.13;12.03;;;;;;;20.70;86.79;95251.94;5073767;28;20440;-80
2022/06/04 01:52:47;;;;;;;10.43;9.43;;;;;;;20.74;86.87;95261.25;5073872;28;20498;-80
2022/06/04 01:55:20;;;;;;;12.43;11.23;;;;;;;20.70;86.87;95252.78;5073736;28;20441;-80
2022/06/04 01:57:53;;;;;;;14.53;11.30;;;;;;;20.61;87.32;95253.06;5074049;28;20445;-79
2022/06/04 02:00:24;;;;;;;18.47;12.40;;;;;;;20.38;88.46;95258.41;5073688;28;20452;-80
2022/06/04 02:03:00;;;;;;;12.80;11.50;;;;;;;20.38;88.77;95261.91;5021783;28;20433;-80
2022/06/04 02:05:32;;;;;;;15.30;12.77;;;;;;;20.37;89.22;95257.59;5073411;28;20535;-80
2022/06/04 02:08:05;;;;;;;13.57;11.80;;;;;;;20.41;89.20;95266.91;5073194;28;20445;-80
2022/06/04 02:10:36;;;;;;;12.87;11.77;;;;;;;20.46;89.06;95276.19;5073385;28;20451;-79
2022/06/04 02:13:09;;;;;;;13.57;12.20;;;;;;;20.51;88.54;95287.97;5073270;28;20516;-80
2022/06/04 02:15:39;;;;;;;15.83;11.60;;;;;;;20.53;88.06;95291.31;5073459;28;20460;-80
2022/06/04 02:18:09;;;;;;;16.70;12.43;;;;;;;20.51;87.92;95293.31;5073358;28;20441;-79
2022/06/04 02:20:37;;;;;;;14.73;10.67;;;;;;;20.53;88.03;95301.97;5073154;28;20465;-80
2022/06/04 02:23:05;;;;;;;11.50;9.90;;;;;;;20.54;87.78;95310.81;5038281;28;20452;-79
2022/06/04 02:25:32;;;;;;;11.80;9.37;;;;;;;20.49;87.14;95315.81;5073306;28;20467;-80
2022/06/04 02:28:00;;;;;;;11.40;10.20;;;;;;;20.36;87.08;95317.25;5073228;28;20440;-80
2022/06/04 02:30:36;;;;;;;11.07;9.93;;;;;;;20.34;87.53;95323.75;5073362;28;20444;-80
2022/06/04 02:33:09;;;;;;;14.10;11.27;;;;;;;20.32;87.48;95329.28;5072950;28;20449;-80
2022/06/04 02:35:45;;;;;;;12.13;10.97;;;;;;;20.31;87.62;95327.63;5073143;28;20452;-80
2022/06/04 02:38:20;;;;;;;11.17;10.10;;;;;;;20.29;87.35;95321.63;5072455;28;20443;-80
2022/06/04 02:40:52;;;;;;;11.40;10.37;;;;;;;20.29;87.40;95316.31;5073208;28;20462;-79
2022/06/04 02:43:29;;;;;;;12.03;10.73;;;;;;;20.35;87.41;95320.09;5072644;28;20820;-79
2022/06/04 02:46:11;;;;;;;10.43;9.63;;;;;;;20.36;87.61;95322.56;5072824;28;20444;-80
2022/06/04 02:48:40;;;;;;;12.87;11.40;;;;;;;20.35;87.54;95325.41;5073051;28;20488;-79
2022/06/04 02:51:11;;;;;;;13.60;9.73;;;;;;;20.35;87.15;95328.91;5072972;28;20452;-80
2022/06/04 02:53:41;;;;;;;14.20;10.93;;;;;;;20.34;87.39;95327.25;5072725;28;20441;-80
2022/06/04 02:56:11;;;;;;;10.13;9.23;;;;;;;20.31;87.38;95318.78;5037928;28;20499;-79
2022/06/04 02:58:42;;;;;;;18.13;10.67;;;;;;;20.32;86.96;95315.13;5072875;28;20471;-80
2022/06/04 03:01:11;;;;;;;12.90;11.60;;;;;;;20.28;86.99;95309.31;5072802;28;20526;-79
2022/06/04 03:03:40;;;;;;;16.40;11.30;;;;;;;20.27;87.20;95310.34;5072537;28;20460;-80
2022/06/04 03:06:09;;;;;;;11.73;10.70;;;;;;;20.28;87.20;95308.50;5072812;28;20557;-80
2022/06/04 03:08:39;;;;;;;11.23;10.13;;;;;;;20.27;87.09;95315.66;5072571;28;20472;-80
2022/06/04 03:11:06;;;;;;;10.67;9.77;;;;;;;20.27;86.61;95317.50;5020908;28;20455;-80
2022/06/04 03:13:33;;;;;;;12.40;10.33;;;;;;;20.24;86.58;95308.03;5072221;28;20445;-79
2022/06/04 03:16:00;;;;;;;11.47;10.43;;;;;;;20.20;86.50;95305.88;5073065;28;20441;-79
2022/06/04 03:18:29;;;;;;;10.60;9.50;;;;;;;20.23;85.91;95300.19;5072307;28;20441;-80
2022/06/04 03:20:56;;;;;;;10.50;9.43;;;;;;;20.29;86.33;95299.50;5072702;28;20892;-80
2022/06/04 03:23:23;;;;;;;10.90;9.80;;;;;;;20.37;86.00;95292.25;5072607;28;20448;-80
2022/06/04 03:25:50;;;;;;;10.83;9.73;;;;;;;20.52;85.48;95292.28;5072426;28;20452;-80
2022/06/04 03:28:17;;;;;;;17.10;9.17;;;;;;;20.66;84.58;95282.66;5072320;28;20441;-80
2022/06/04 03:30:44;;;;;;;10.67;9.60;;;;;;;20.88;84.31;95284.44;5072710;28;20806;-80
2022/06/04 03:33:10;;;;;;;10.40;9.40;;;;;;;21.14;82.85;95285.81;5072735;28;20928;-81
2022/06/04 03:35:39;;;;;;;10.20;9.20;;;;;;;21.42;81.51;95280.66;5036959;28;20448;-80
2022/06/04 03:38:06;;;;;;;13.90;8.97;;;;;;;21.60;80.19;95289.91;5072259;28;20444;-80
2022/06/04 03:40:33;;;;;;;10.17;8.83;;;;;;;21.78;79.64;95283.31;5072631;28;20424;-80
2022/06/04 03:43:00;;;;;;;10.17;9.07;;;;;;;22.00;78.78;95287.66;5072499;28;20498;-80
2022/06/04 03:45:27;;;;;;;10.30;9.20;;;;;;;22.23;77.38;95292.84;5072376;28;20473;-80
2022/06/04 03:47:54;;;;;;;9.60;8.70;;;;;;;22.48;76.66;95282.56;5072442;28;20943;-80
2022/06/04 03:50:21;;;;;;;9.73;8.07;;;;;;;22.66;75.45;95288.25;5073370;28;20480;-80
2022/06/04 03:52:50;;;;;;;9.90;8.07;;;;;;;22.86;74.84;95289.28;5076240;28;20453;-79
2022/06/04 03:55:19;;;;;;;9.17;7.83;;;;;;;23.11;73.04;95288.78;5075663;28;20451;-80
2022/06/04 03:57:49;;;;;;;9.80;8.80;;;;;;;23.35;72.14;95301.69;5075670;28;20453;-80
2022/06/04 04:00:19;;;;;;;9.13;8.30;;;;;;;23.57;71.32;95291.72;5076179;28;20493;-80
2022/06/04 04:02:50;;;;;;;13.70;9.07;;;;;;;23.79;70.52;95306.63;5076058;28;20456;-80
2022/06/04 04:05:19;;;;;;;9.40;8.60;;;;;;;23.99;69.59;95306.69;5076331;28;20798;-80
2022/06/04 04:07:47;;;;;;;10.80;9.50;;;;;;;24.32;68.93;95312.16;5075598;28;20445;-79
2022/06/04 04:10:16;;;;;;;9.83;9.03;;;;;;;24.61;67.17;95312.78;5040325;28;20480;-80
2022/06/04 04:12:43;;;;;;;9.10;8.27;;;;;;;24.96;66.58;95313.38;5075555;28;20452;-80
2022/06/04 04:15:12;;;;;;;9.63;8.63;;;;;;;25.22;64.90;95315.22;5075780;28;20445;-80
2022/06/04 04:17:40;;;;;;;9.13;8.43;;;;;;;25.40;64.57;95312.69;5075518;28;20450;-80
2022/06/04 04:20:10;;;;;;;8.77;8.07;;;;;;;25.62;63.41;95315.94;5075715;28;20473;-80
2022/06/04 04:22:37;;;;;;;8.23;7.53;;;;;;;25.77;62.70;95305.78;5075533;28;21133;-80
2022/06/04 04:25:05;;;;;;;8.33;7.53;;;;;;;26.07;62.31;95318.66;5075339;28;20445;-80
2022/06/04 04:27:34;;;;;;;8.53;7.83;;;;;;;26.36;61.32;95322.66;5075299;28;20450;-80
2022/06/04 04:30:01;;;;;;;9.80;8.80;;;;;;;26.60;61.49;95323.69;5075259;28;20492;-80
2022/06/04 04:32:28;;;;;;;8.30;7.50;;;;;;;26.90;60.75;95327.41;5075350;28;20947;-80
2022/06/04 04:34:54;;;;;;;8.93;8.17;;;;;;;27.24;59.61;95319.88;5075373;28;20454;-80
2022/06/04 04:37:21;;;;;;;8.77;8.07;;;;;;;27.59;58.08;95328.19;5074987;28;20441;-80
2022/06/04 04:39:48;;;;;;;8.07;7.17;;;;;;;27.75;57.23;95331.13;5075397;28;21538;-80
2022/06/04 04:42:15;;;;;;;9.60;8.20;;;;;;;27.93;56.82;95340.25;5075028;28;20944;-80
2022/06/04 04:44:43;;;;;;;7.50;6.87;;;;;;;28.05;55.50;95338.47;5023604;28;20960;-80
2022/06/04 04:47:10;;;;;;;8.70;7.67;;;;;;;28.24;55.45;95340.09;5074982;28;20450;-80
2022/06/04 04:49:37;;;;;;;8.13;6.83;;;;;;;28.35;55.73;95349.31;5022969;28;20853;-80
2022/06/04 04:52:05;;;;;;;10.93;7.27;;;;;;;28.46;55.07;95363.88;5074972;28;20805;-80
2022/06/04 04:54:33;;;;;;;9.57;7.60;;;;;;;28.55;54.50;95370.59;5039424;28;20602;-80
2022/06/04 04:57:00;;;;;;;11.20;7.87;;;;;;;28.66;54.84;95375.22;5075069;28;20533;-80
2022/06/04 04:59:27;;;;;;;10.30;8.47;;;;;;;28.60;54.51;95365.31;5074922;28;20458;-80
2022/06/04 05:01:55;;;;;;;10.40;8.50;;;;;;;28.52;54.73;95368.34;5074047;28;20446;-80
2022/06/04 05:04:22;;;;;;;9.37;8.03;;;;;;;28.47;54.20;95357.44;5074884;28;20462;-80
2022/06/04 05:06:49;;;;;;;13.27;9.80;;;;;;;28.49;55.48;95355.31;5074560;28;20445;-80
2022/06/04 05:09:16;;;;;;;12.00;10.03;;;;;;;28.28;55.02;95356.63;5074636;28;20486;-80
2022/06/04 05:11:43;;;;;;;13.87;9.27;;;;;;;28.23;56.56;95360.00;5074976;28;20503;-80
2022/06/04 05:14:10;;;;;;;15.53;9.83;;;;;;;28.22;56.20;95355.66;5039183;28;20457;-80
2022/06/04 05:16:40;;;;;;;11.33;8.87;;;;;;;28.26;56.29;95359.56;5074229;28;20458;-81
2022/06/04 05:19:08;;;;;;;11.73;8.27;;;;;;;28.32;56.33;95357.81;5074482;28;20552;-81
2022/06/04 05:21:39;;;;;;;9.77;8.80;;;;;;;28.42;55.69;95354.59;5074365;28;20434;-80
2022/06/04 05:24:07;;;;;;;11.93;9.37;;;;;;;28.52;55.59;95352.16;5074266;28;20453;-81
2022/06/04 05:26:34;;;;;;;16.23;10.10;;;;;;;28.69;55.15;95355.84;5074444;28;20827;-80
2022/06/04 05:29:01;;;;;;;14.67;8.90;;;;;;;28.85;53.86;95363.31;5074062;28;20938;-80
2022/06/04 05:31:28;;;;;;;9.70;8.90;;;;;;;28.97;54.21;95363.34;5074688;28;20806;-80
2022/06/04 05:33:55;;;;;;;11.23;9.70;;;;;;;28.91;53.94;95362.41;5022612;28;20457;-80
2022/06/04 05:36:23;;;;;;;9.50;8.53;;;;;;;28.83;53.90;95368.09;5074179;28;20448;-80
2022/06/04 05:38:50;;;;;;;39.33;10.80;;;;;;;28.73;53.83;95365.13;5074253;28;20525;-80
2022/06/04 05:41:19;;;;;;;9.67;8.87;;;;;;;28.68;54.34;95360.44;5074165;28;20445;-81
2022/06/04 05:43:46;;;;;;;12.57;9.00;;;;;;;28.69;54.66;95361.25;5074199;28;20466;-80
2022/06/04 05:46:15;;;;;;;9.90;8.87;;;;;;;28.55;55.23;95363.31;5074062;28;20439;-80
2022/06/04 05:48:44;;;;;;;8.77;7.90;;;;;;;28.61;54.62;95369.66;5073602;28;20500;-81
2022/06/04 05:51:11;;;;;;;11.37;10.20;;;;;;;28.69;55.23;95363.97;5074127;28;20493;-80
2022/06/04 05:53:40;;;;;;;11.70;9.60;;;;;;;28.43;55.06;95356.25;5073619;28;20796;-80
2022/06/04 05:56:12;;;;;;;11.67;9.30;;;;;;;28.47;55.59;95366.34;5073656;28;20450;-80
2022/06/04 05:58:39;;;;;;;13.53;10.87;;;;;;;28.24;55.55;95367.06;5073863;28;20461;-80
2022/06/04 06:01:06;;;;;;;14.20;10.50;;;;;;;28.25;55.93;95363.31;5073846;28;20457;-80
2022/06/04 06:03:34;;;;;;;9.63;8.73;;;;;;;28.33;56.62;95367.56;5073515;28;20442;-80
2022/06/04 06:06:01;;;;;;;11.97;9.87;;;;;;;27.99;55.90;95374.44;5073522;28;20438;-80
2022/06/04 06:08:28;;;;;;;11.40;10.20;;;;;;;28.05;56.47;95368.16;5073376;28;20497;-81
2022/06/04 06:10:57;;;;;;;11.73;10.83;;;;;;;28.07;56.47;95371.44;5073433;28;20511;-80
2022/06/04 06:13:24;;;;;;;11.40;10.40;;;;;;;28.23;56.18;95364.56;5072577;28;20437;-80
2022/06/04 06:15:51;;;;;;;9.97;9.10;;;;;;;28.44;56.42;95371.38;5073287;28;20450;-80
2022/06/04 06:18:17;;;;;;;11.43;10.37;;;;;;;28.53;55.81;95361.91;5073346;28;20443;-80
2022/06/04 06:20:44;;;;;;;11.50;9.93;;;;;;;28.69;55.40;95351.28;5072849;28;20478;-81
2022/06/04 06:23:12;;;;;;;12.90;8.77;;;;;;;28.88;55.15;95349.31;5037896;28;20442;-80
2022/06/04 06:25:40;;;;;;;11.33;10.20;;;;;;;29.11;54.44;95348.53;5073294;28;20524;-81
2022/06/04 06:28:08;;;;;;;11.53;9.60;;;;;;;29.30;54.21;95351.97;5073315;28;20451;-80
2022/06/04 06:30:36;;;;;;;10.83;9.67;;;;;;;29.28;54.63;95352.19;5072883;28;20481;-80
2022/06/04 06:33:03;;;;;;;10.30;9.27;;;;;;;29.07;55.68;95350.06;5073205;28;20508;-80
2022/06/04 06:35:30;;;;;;;13.47;11.67;;;;;;;28.60;56.36;95346.41;5021564;28;20466;-80
2022/06/04 06:37:57;;;;;;;14.03;10.67;;;;;;;28.72;56.41;95338.34;5073054;28;20442;-80
2022/06/04 06:40:24;;;;;;;13.00;10.83;;;;;;;28.37;56.99;95336.41;5072876;28;20434;-80
2022/06/04 06:42:51;;;;;;;12.67;10.20;;;;;;;28.23;58.20;95341.09;5072800;28;20448;-80
2022/06/04 06:45:20;;;;;;;16.33;10.53;;;;;;;28.19;59.46;95334.53;5072697;28;20958;-80
2022/06/04 06:47:47;;;;;;;10.70;9.70;;;;;;;28.06;58.61;95334.72;5037577;28;20457;-80
2022/06/04 06:50:16;;;;;;;23.73;10.73;;;;;;;28.08;57.94;95338.00;5072585;28;20490;-80
2022/06/04 06:52:43;;;;;;;11.33;10.23;;;;;;;27.97;59.03;95330.66;5072931;28;20945;-80
2022/06/04 06:55:11;;;;;;;14.10;11.83;;;;;;;27.66;60.79;95329.78;5073077;28;20750;-80
2022/06/04 06:57:38;;;;;;;14.83;10.60;;;;;;;27.79;60.47;95319.91;5072946;28;20452;-80
2022/06/04 07:00:06;;;;;;;11.00;9.90;;;;;;;28.18;60.33;95324.78;5072706;28;20450;-80
2022/06/04 07:02:35;;;;;;;16.90;10.10;;;;;;;28.41;58.57;95320.56;5072567;28;20457;-80
2022/06/04 07:05:01;;;;;;;10.87;9.87;;;;;;;28.78;57.52;95322.03;5072801;28;20488;-80
2022/06/04 07:07:29;;;;;;;10.50;8.63;;;;;;;28.92;56.81;95320.81;5020952;28;20449;-80
2022/06/04 07:09:56;;;;;;;11.00;9.87;;;;;;;29.26;56.52;95323.75;5072494;28;20493;-80
2022/06/04 07:12:23;;;;;;;10.17;9.10;;;;;;;29.31;55.30;95315.75;5072630;28;20453;-80
2022/06/04 07:14:49;;;;;;;12.13;8.53;;;;;;;29.55;55.11;95312.00;5072583;28;20457;-80
2022/06/04 07:17:16;;;;;;;10.97;9.97;;;;;;;29.71;53.23;95315.00;5072483;28;20449;-80
2022/06/04 07:19:45;;;;;;;10.53;9.53;;;;;;;29.89;53.76;95314.84;5072472;28;20999;-81
2022/06/04 07:22:12;;;;;;;15.20;9.80;;;;;;;29.92;55.48;95303.53;5072716;28;20474;-80
2022/06/04 07:24:39;;;;;;;14.27;9.63;;;;;;;29.68;55.15;95304.66;5072652;28;20532;-80
2022/06/04 07:27:06;;;;;;;13.23;9.93;;;;;;;29.69;54.06;95298.19;5041551;28;20451;-80
2022/06/04 07:29:33;;;;;;;11.10;8.70;;;;;;;29.86;54.04;95290.97;5076190;28;20445;-81
2022/06/04 07:32:00;;;;;;;10.60;8.13;;;;;;;30.02;53.21;95290.19;5076503;28;20438;-80
2022/06/04 07:34:27;;;;;;;14.20;8.37;;;;;;;29.94;53.87;95282.47;5024895;28;20449;-80
2022/06/04 07:36:55;;;;;;;9.57;8.67;;;;;;;29.80;53.30;95278.41;5076425;28;20449;-81
2022/06/04 07:39:23;;;;;;;8.30;7.60;;;;;;;30.20;53.51;95283.81;5076677;28;20449;-81
2022/06/04 07:41:52;;;;;;;16.03;9.30;;;;;;;30.49;52.53;95280.00;5076385;28;20797;-80
2022/06/04 07:44:23;;;;;;;9.53;8.47;;;;;;;30.57;52.28;95275.25;5076207;28;20535;-80
2022/06/04 07:46:58;;;;;;;8.57;7.40;;;;;;;30.43;53.59;95277.47;5076254;28;20465;-81
2022/06/04 07:49:25;;;;;;;11.67;8.70;;;;;;;29.62;53.45;95278.56;5024945;28;20442;-80
2022/06/04 07:51:54;;;;;;;12.00;9.40;;;;;;;29.60;54.96;95286.94;5075794;28;20480;-80
2022/06/04 07:54:23;;;;;;;14.07;9.23;;;;;;;29.45;56.61;95282.00;5076012;28;20941;-80
2022/06/04 07:56:50;;;;;;;11.20;10.10;;;;;;;29.28;56.90;95283.78;5024314;28;20807;-80
2022/06/04 07:59:17;;;;;;;12.00;9.80;;;;;;;29.07;58.00;95276.28;5075903;28;21205;-80
2022/06/04 08:01:45;;;;;;;13.93;9.77;;;;;;;29.09;57.97;95268.75;5075717;28;20447;-81
2022/06/04 08:04:12;;;;;;;14.10;9.50;;;;;;;29.09;57.49;95266.03;5075678;28;20455;-80
2022/06/04 08:06:40;;;;;;;21.07;10.03;;;;;;;29.20;59.37;95276.00;5076288;28;20457;-80
2022/06/04 08:09:07;;;;;;;18.97;10.10;;;;;;;28.92;56.54;95279.47;5075880;28;20452;-80
2022/06/04 08:11:36;;;;;;;10.43;9.23;;;;;;;28.66;56.96;95273.41;5024141;28;20502;-79
2022/06/04 08:14:09;;;;;;;9.97;8.90;;;;;;;28.60;57.49;95266.22;5075885;28;20514;-80
2022/06/04 08:16:38;;;;;;;12.70;10.40;;;;;;;28.49;58.22;95267.03;5075540;28;20448;-80
2022/06/04 08:19:06;;;;;;;12.17;10.13;;;;;;;28.11;60.58;95267.38;5075458;28;20481;-80
2022/06/04 08:21:34;;;;;;;11.43;10.27;;;;;;;28.24;60.42;95255.56;5075701;28;20460;-80
2022/06/04 08:24:01;;;;;;;15.40;8.70;;;;;;;28.06;61.46;95253.75;5075319;28;20442;-80
2022/06/04 08:26:28;;;;;;;9.70;8.80;;;;;;;27.86;62.68;95248.63;5075355;28;20472;-81
2022/06/04 08:28:56;;;;;;;10.20;9.00;;;;;;;27.75;62.28;95247.53;5075316;28;20780;-79
2022/06/04 08:31:23;;;;;;;10.77;9.13;;;;;;;27.69;61.96;95236.81;5075317;28;20508;-80
2022/06/04 08:33:50;;;;;;;8.47;7.67;;;;;;;27.69;62.44;95242.22;5075597;28;20511;-80
2022/06/04 08:36:19;;;;;;;16.53;8.77;;;;;;;27.64;64.09;95234.00;5074413;28;20434;-80
2022/06/04 08:38:47;;;;;;;13.57;8.80;;;;;;;27.33;64.55;95224.19;5074923;28;20529;-80
2022/06/04 08:41:27;;;;;;;9.07;8.23;;;;;;;27.54;62.95;95231.00;5075323;28;20529;-80
2022/06/04 08:44:03;;;;;;;12.87;7.93;;;;;;;27.56;62.46;95227.03;5075185;28;20943;-80
2022/06/04 08:46:36;;;;;;;9.60;8.17;;;;;;;27.55;59.90;95213.75;5075035;28;20452;-80
2022/06/04 08:49:11;;;;;;;10.47;6.90;;;;;;;27.72;61.61;95217.50;5023361;28;20446;-80
2022/06/04 08:51:39;;;;;;;9.67;7.57;;;;;;;27.85;60.86;95224.59;5075450;28;20529;-79
2022/06/04 08:59:39;;;;;;;10.00;7.90;;;;;;;27.89;57.29;95206.88;5075037;28;20515;-80
2022/06/04 09:02:14;;;;;;;8.50;7.67;;;;;;;27.66;57.07;95204.94;5075039;28;20532;-81
2022/06/04 09:04:52;;;;;;;9.53;6.87;;;;;;;27.52;57.19;95201.56;5074780;28;20449;-81
2022/06/04 09:07:24;;;;;;;8.43;6.90;;;;;;;27.35;57.19;95197.84;5074648;28;20588;-80
2022/06/04 09:09:58;;;;;;;8.10;6.77;;;;;;;27.51;59.48;95201.78;5074570;28;20932;-80
2022/06/04 09:12:36;;;;;;;7.33;6.70;;;;;;;27.45;57.81;95204.31;5074472;28;20492;-80
2022/06/04 09:15:12;;;;;;;8.40;7.60;;;;;;;27.55;58.04;95194.91;5074701;28;20466;-82
2022/06/04 09:17:43;;;;;;;10.40;7.20;;;;;;;27.71;58.12;95197.78;5074945;28;20449;-80
2022/06/04 09:20:26;;;;;;;9.77;7.20;;;;;;;27.64;56.60;95201.63;5075007;28;20472;-80
2022/06/04 09:22:58;;;;;;;12.10;7.90;;;;;;;27.62;58.00;95193.78;5074355;28;20446;-80
2022/06/04 09:25:29;;;;;;;6.67;5.93;;;;;;;27.85;58.47;95203.84;5024274;28;20457;-81
2022/06/04 09:28:07;;;;;;;10.60;7.70;;;;;;;28.09;58.11;95199.34;5074233;28;20441;-81
2022/06/04 09:30:38;;;;;;;7.60;6.77;;;;;;;28.26;57.35;95200.31;5022659;28;20478;-81
2022/06/04 09:33:24;;;;;;;8.40;7.50;;;;;;;28.41;56.57;95204.47;5074265;28;20946;-80
2022/06/04 09:35:56;;;;;;;8.00;6.93;;;;;;;28.56;56.62;95205.63;5074224;28;20471;-80
2022/06/04 09:38:25;;;;;;;9.47;7.20;;;;;;;28.60;55.43;95203.28;5074397;28;20952;-81
2022/06/04 09:41:02;;;;;;;8.33;7.40;;;;;;;28.71;54.77;95202.47;5073930;28;20529;-81
2022/06/04 09:43:29;;;;;;;7.43;6.73;;;;;;;28.89;52.95;95199.66;5074390;28;20444;-81
2022/06/04 09:46:01;;;;;;;7.10;6.40;;;;;;;29.16;56.34;95201.88;5073973;28;20457;-81
2022/06/04 09:48:32;;;;;;;8.37;7.47;;;;;;;29.22;51.59;95198.22;5074000;28;20449;-80
2022/06/04 09:51:01;;;;;;;7.10;6.40;;;;;;;29.48;54.61;95191.47;5073920;28;20490;-81
2022/06/04 09:53:31;;;;;;;8.10;7.30;;;;;;;29.76;52.06;95194.19;5073757;28;20450;-81
2022/06/04 09:56:06;;;;;;;7.33;6.73;;;;;;;29.91;51.12;95190.94;5073845;28;20446;-81
2022/06/04 09:58:39;;;;;;;13.10;7.70;;;;;;;30.01;50.10;95196.53;5073830;28;20450;-81
2022/06/04 10:01:10;;;;;;;7.20;6.30;;;;;;;30.08;50.51;95191.84;5073471;28;20457;-81
2022/06/04 10:03:39;;;;;;;9.37;7.97;;;;;;;30.20;50.48;95200.69;5073314;28;20534;-81
2022/06/04 10:06:11;;;;;;;11.30;7.73;;;;;;;30.32;49.97;95188.97;5073344;28;20509;-81
2022/06/04 10:11:32;;;;;;;12.97;7.00;;;;;;;30.34;50.26;95184.13;5011481;28;20508;-81
2022/06/04 10:13:59;;;;;;;8.57;6.40;;;;;;;30.36;50.58;95184.69;5011271;28;20453;-81
2022/06/04 10:16:37;;;;;;;13.43;7.57;;;;;;;30.38;51.63;95180.69;5011373;28;20448;-81
2022/06/04 10:19:14;;;;;;;12.73;7.80;;;;;;;30.28;49.35;95183.22;5011334;28;20484;-80
2022/06/04 10:21:44;;;;;;;8.17;6.87;;;;;;;30.23;50.32;95187.75;5011179;28;20461;-81
2022/06/04 10:24:24;;;;;;;10.17;6.07;;;;;;;30.12;49.95;95175.94;5011445;28;20460;-80
2022/06/04 10:27:05;;;;;;;17.20;8.37;;;;;;;30.02;50.13;95176.53;5011538;28;20473;-80
2022/06/04 10:30:02;;;;;;;11.30;6.93;;;;;;;29.95;49.38;95173.16;5011093;28;20454;-81
2022/06/04 10:32:45;;;;;;;8.47;7.03;;;;;;;29.98;51.48;95161.84;5011258;28;20484;-81
2022/06/04 10:35:21;;;;;;;9.73;6.33;;;;;;;30.01;50.30;95165.94;5011195;28;20484;-81
2022/06/04 10:38:03;;;;;;;11.30;6.67;;;;;;;29.93;49.30;95159.03;5011200;28;20425;-81
2022/06/04 10:40:51;;;;;;;10.37;6.90;;;;;;;29.86;50.15;95161.91;4981219;28;20888;-81
2022/06/04 10:43:43;;;;;;;6.63;6.03;;;;;;;29.79;49.51;95149.63;5011126;28;21002;-81
2022/06/04 10:46:18;;;;;;;13.37;7.23;;;;;;;29.89;48.82;95152.50;5011211;28;20459;-81
2022/06/04 10:49:01;;;;;;;10.40;7.57;;;;;;;30.03;49.98;95151.13;5042394;28;20441;-81
2022/06/04 10:51:46;;;;;;;11.50;7.70;;;;;;;30.16;49.36;95145.41;5072744;28;20485;-81
2022/06/04 10:54:17;;;;;;;19.50;11.13;;;;;;;30.24;48.58;95141.47;5072969;28;20443;-81
2022/06/04 10:56:47;;;;;;;7.63;6.83;;;;;;;30.29;48.37;95138.00;5073338;28;20451;-81
2022/06/04 10:59:21;;;;;;;11.87;7.57;;;;;;;30.32;46.86;95134.81;5072412;28;20458;-81
2022/06/04 11:01:56;;;;;;;8.13;7.33;;;;;;;30.39;48.39;95139.00;5072741;28;20806;-81
2022/06/04 11:04:35;;;;;;;8.40;7.50;;;;;;;30.43;48.51;95131.22;5072686;28;20454;-81
2022/06/04 11:07:18;;;;;;;9.57;6.50;;;;;;;30.41;47.84;95131.44;5072586;28;20443;-81
2022/06/04 11:09:46;;;;;;;8.70;6.83;;;;;;;30.46;48.73;95128.00;5072357;28;20445;-81
2022/06/04 11:12:25;;;;;;;7.67;6.90;;;;;;;30.57;48.44;95124.34;5072623;28;20479;-81
2022/06/04 11:14:56;;;;;;;11.20;6.33;;;;;;;30.73;48.36;95114.59;5072175;28;20542;-81
2022/06/04 11:17:25;;;;;;;9.00;8.07;;;;;;;30.80;45.81;95121.47;5072187;28;20496;-82
2022/06/04 11:20:03;;;;;;;11.27;6.70;;;;;;;30.84;46.30;95121.78;5071947;28;20892;-82
2022/06/04 11:22:35;;;;;;;10.47;7.80;;;;;;;30.80;46.06;95120.66;5072465;28;20503;-81
2022/06/04 11:25:14;;;;;;;6.80;6.20;;;;;;;30.74;45.35;95113.53;5072658;28;20451;-82
2022/06/04 11:27:47;;;;;;;8.67;6.47;;;;;;;30.65;47.86;95115.84;5072690;28;20446;-81
2022/06/04 11:30:17;;;;;;;13.43;6.67;;;;;;;30.68;46.34;95114.53;5072039;28;20453;-81
2022/06/04 11:32:53;;;;;;;8.43;7.50;;;;;;;30.74;45.84;95110.81;5072321;28;20482;-81
2022/06/04 11:35:38;;;;;;;8.00;7.20;;;;;;;30.73;45.63;95112.72;5072167;28;20514;-82
2022/06/04 11:38:17;;;;;;;10.80;8.10;;;;;;;30.47;45.77;95116.09;5072744;28;20446;-81
2022/06/04 11:40:50;;;;;;;19.13;8.07;;;;;;;30.19;46.43;95117.84;5072211;28;20442;-81
2022/06/04 11:43:28;;;;;;;9.37;7.57;;;;;;;30.05;47.36;95121.94;5072240;28;20525;-81
2022/06/04 11:46:06;;;;;;;7.13;6.43;;;;;;;30.07;46.66;95114.41;5072265;28;20443;-81
2022/06/04 11:48:56;;;;;;;9.23;6.43;;;;;;;30.11;45.57;95115.56;5072266;28;20449;-81
2022/06/04 11:51:56;;;;;;;15.40;7.53;;;;;;;30.00;46.45;95107.47;5072205;28;20477;-81
2022/06/04 11:54:38;;;;;;;12.20;7.40;;;;;;;29.67;47.32;95098.25;4932889;29;20453;-81
2022/06/04 11:57:12;;;;;;;11.30;8.40;;;;;;;29.65;47.43;95094.16;4932618;29;20468;-82
2022/06/04 11:59:54;;;;;;;7.30;6.70;;;;;;;29.58;46.20;95086.19;4900803;29;20441;-81
2022/06/04 12:02:28;;;;;;;13.17;7.90;;;;;;;29.72;47.74;95102.94;4932610;29;20460;-81